WetterOnline ( https://www.wetteronline.de )

Wetter aktuell Hamburg

Aktuelles Wetter: Hamburg/Fuhlsbüttel (15m)

6-stündlich | Neueste Meldungen
Ortszeit Temperatur Wetter
Fr, 30.10. 13:00 13.9° C Sprühregen
Fr, 30.10. 7:00 12.1° C Sprühregen
Fr, 30.10. 1:00 9.3° C leichter Regen
Do, 29.10. 19:00 9.1° C wolkig
Do, 29.10. 13:00 11.2° C bewölkt
Do, 29.10. 7:00 7.5° C Schauer
Do, 29.10. 1:00 9.9° C leichte Schauer
Mi, 28.10. 19:00 10.2° C leichte Schauer
Ortszeit Temperatur Wetter
Fr, 30.10. 16:20 14° C leichter Regen
Fr, 30.10. 16:00 14.0° C Sprühregen
Fr, 30.10. 15:50 14.0° C Sprühregen
Fr, 30.10. 15:40 13.9° C Sprühregen
Fr, 30.10. 15:30 14.0° C -
Fr, 30.10. 15:20 14.0° C Sprühregen
Fr, 30.10. 15:00 14.0° C Sprühregen
Fr, 30.10. 14:30 13.9° C -
Fr, 30.10. 14:00 13.9° C Sprühregen
Fr, 30.10. 13:30 13.9° C -
Fr, 30.10. 13:00 13.9° C Sprühregen
Ortszeit Relative Feuchte Sichtweite
Fr, 30.10. 13:00 97% 4.5 km
Fr, 30.10. 7:00 97% 3.5 km
Fr, 30.10. 1:00 97% 5.0 km
Do, 29.10. 19:00 86% 28 km
Do, 29.10. 13:00 72% 40 km
Do, 29.10. 7:00 95% 6 km
Do, 29.10. 1:00 89% 18 km
Mi, 28.10. 19:00 79% 45 km
Ortszeit Relative Feuchte Sichtweite
Fr, 30.10. 16:20 100% 3.2 km
Fr, 30.10. 16:00 96% 4.2 km
Fr, 30.10. 15:50 96% -
Fr, 30.10. 15:40 97% -
Fr, 30.10. 15:30 96% 2.8 km
Fr, 30.10. 15:20 96% -
Fr, 30.10. 15:00 97% 5.0 km
Fr, 30.10. 14:30 97% 5.0 km
Fr, 30.10. 14:00 97% 3.8 km
Fr, 30.10. 13:30 97% 3.0 km
Fr, 30.10. 13:00 97% 4.5 km
Ortszeit Niederschlagsmenge Niederschlagsart
Fr, 30.10. 13:00 3 l/m2 in 6 Std. Regen
Fr, 30.10. 7:00 8 l/m2 in 12 Std. Regen
Fr, 30.10. 1:00 2 l/m2 in 6 Std. Regen
Do, 29.10. 19:00 3 l/m2 in 12 Std. Schauer
Do, 29.10. 13:00 2 l/m2 in 6 Std. Schauer
Do, 29.10. 7:00 4 l/m2 in 12 Std. Schauer
Do, 29.10. 1:00 1 l/m2 in 6 Std. Schauer
Mi, 28.10. 19:00 0.1 l/m2 in 12 Std. Schauer
Ortszeit Niederschlagsmenge Niederschlagsart
Fr, 30.10. 16:20 keine Meldung -
Fr, 30.10. 16:00 0.2 l/m2 in 1 Std. Regen
Fr, 30.10. 15:50 keine Meldung -
Fr, 30.10. 15:40 keine Meldung -
Fr, 30.10. 15:30 0.1 l/m2 in 1 Std. -
Fr, 30.10. 15:20 keine Meldung -
Fr, 30.10. 15:00 0.2 l/m2 in 1 Std. Regen
Fr, 30.10. 14:30 0.1 l/m2 in 1 Std. -
Fr, 30.10. 14:00 0.1 l/m2 in 1 Std. Regen
Fr, 30.10. 13:30 0.1 l/m2 in 1 Std. -
Fr, 30.10. 13:00 0.1 l/m2 in 1 Std. Regen
Ortszeit Stärke Spitze Richtung
km/h Bft. km/h Grad Sektor
Fr, 30.10. 13:00 20 4 41 250° W
Fr, 30.10. 7:00 18 3 25 230° SW
Fr, 30.10. 1:00 15 3 26 150° SO
Do, 29.10. 19:00 15 3 44 230° SW
Do, 29.10. 13:00 22 4 50 270° W
Do, 29.10. 7:00 22 4 43 250° W
Do, 29.10. 1:00 18 3 36 210° SW
Mi, 28.10. 19:00 14 3 43 200° S
Ortszeit Stärke Spitze Richtung
km/h Bft. km/h Grad Sektor
Fr, 30.10. 16:20 17 3 - 260° W
Fr, 30.10. 16:00 17 3 30 260° W
Fr, 30.10. 15:50 17 3 - 260° W
Fr, 30.10. 15:40 17 3 - 260° W
Fr, 30.10. 15:30 17 3 30 260° W
Fr, 30.10. 15:20 17 3 - 260° W
Fr, 30.10. 15:00 18 3 36 260° W
Fr, 30.10. 14:30 17 3 30 260° W
Fr, 30.10. 14:00 18 3 32 260° W
Fr, 30.10. 13:30 18 3 32 260° W
Fr, 30.10. 13:00 20 4 37 250° W
Ortszeit Untergrenze Bedeckung Gattung
total tief tief mittel hoch
Fr, 30.10. 13:00 120 m 8/8 8/8 St - -
Fr, 30.10. 7:00 90 m 8/8 8/8 St - -
Fr, 30.10. 1:00 150 m 8/8 7/8 St - -
Do, 29.10. 19:00 4500 m 7/8 4/8 - As Ci
Do, 29.10. 13:00 510 m 7/8 6/8 Cu Ac -
Do, 29.10. 7:00 240 m 8/8 7/8 Cb - -
Do, 29.10. 1:00 510 m 8/8 7/8 Cb - -
Mi, 28.10. 19:00 1800 m 7/8 4/8 Cb As Ci
Ortszeit Bedeckungsgrad in Achtel und Wolkenuntergrenze
Fr, 30.10. 16:20 1-2(120m) 5-7(150m)
Fr, 30.10. 16:00 2(120m) 7(150m) 8
Fr, 30.10. 15:50 -
Fr, 30.10. 15:40 -
Fr, 30.10. 15:30 -
Fr, 30.10. 15:20 -
Fr, 30.10. 15:00 1(120m) 7(150m) 8
Fr, 30.10. 14:30 -
Fr, 30.10. 14:00 7(150m)
Fr, 30.10. 13:30 -
Fr, 30.10. 13:00 2(120m) 7(180m)
Ortszeit Luftdruck NN (hPa) Tendenz (hPa in 3 Std.)
Fr, 30.10. 13:00 1013 + 1,2
Fr, 30.10. 7:00 1011 - 0,4
Fr, 30.10. 1:00 1013 - 1,5
Do, 29.10. 19:00 1014 + 1,3
Do, 29.10. 13:00 1011 + 2,1
Do, 29.10. 7:00 1006 + 2,2
Do, 29.10. 1:00 1004 - 1,6
Mi, 28.10. 19:00 1007 + 0,6
Ortszeit Luftdruck NN (hPa) Tendenz (hPa in 3 Std.)
Fr, 30.10. 16:20 1015 keine Meldung
Fr, 30.10. 16:00 1015 + 1,6
Fr, 30.10. 15:50 1015 keine Meldung
Fr, 30.10. 15:40 1015 keine Meldung
Fr, 30.10. 15:30 1015 + 1,6
Fr, 30.10. 15:20 1015 keine Meldung
Fr, 30.10. 15:00 1014 + 1,4
Fr, 30.10. 14:30 1014 + 1,5
Fr, 30.10. 14:00 1014 + 1,3
Fr, 30.10. 13:30 1013 + 1,3
Fr, 30.10. 13:00 1013 + 1,2
Ortszeit Schneehöhe (cm)
Fr, 30.10. 13:00 0
Fr, 30.10. 7:00 0
Fr, 30.10. 1:00 0
Do, 29.10. 19:00 0
Do, 29.10. 13:00 0
Do, 29.10. 7:00 0
Do, 29.10. 1:00 0
Mi, 28.10. 19:00 0
Ortszeit Schneehöhe (cm)
Fr, 30.10. 16:20 -
Fr, 30.10. 16:00 -
Fr, 30.10. 15:50 -
Fr, 30.10. 15:40 -
Fr, 30.10. 15:30 -
Fr, 30.10. 15:20 -
Fr, 30.10. 15:00 -
Fr, 30.10. 14:30 -
Fr, 30.10. 14:00 -
Fr, 30.10. 13:30 -
Fr, 30.10. 13:00 0
Link zu dieser Seite / Seite empfehlen

Das Wetter in ...